createdAt,value
2023-04-11T00:00:29.925Z,100820.69
2023-04-11T00:03:00.303Z,100822.59
2023-04-11T00:05:33.410Z,100826.88
2023-04-11T00:07:59.805Z,100819.31
2023-04-11T00:10:26.193Z,100827.16
2023-04-11T00:12:56.471Z,100824.72
2023-04-11T00:15:26.875Z,100826.34
2023-04-11T00:17:54.924Z,100820.69
2023-04-11T00:20:21.660Z,100823.66
2023-04-11T00:22:48.244Z,100823.38
2023-04-11T00:25:15.293Z,100820.44
2023-04-11T00:27:41.638Z,100820.16
2023-04-11T00:30:08.456Z,100816.66
2023-04-11T00:32:34.816Z,100822.06
2023-04-11T00:35:04.627Z,100818.81
2023-04-11T00:37:36.108Z,100834.56
2023-04-11T00:40:05.690Z,100829.97
2023-04-11T00:42:32.698Z,100828.88
2023-04-11T00:44:59.046Z,100824.56
2023-04-11T00:47:25.823Z,100818.91
2023-04-11T00:49:52.324Z,100832.16
2023-04-11T00:52:19.405Z,100826.44
2023-04-11T00:54:46.721Z,100824.88
2023-04-11T00:57:13.313Z,100829.19
2023-04-11T00:59:41.581Z,100832.72
2023-04-11T01:02:08.238Z,100828.94
2023-04-11T01:04:34.953Z,100830.31
2023-04-11T01:07:06.297Z,100834.13
2023-04-11T01:09:35.464Z,100835.50
2023-04-11T01:12:03.961Z,100833.06
2023-04-11T01:14:30.619Z,100830.09
2023-04-11T01:16:58.164Z,100833.63
2023-04-11T01:19:29.256Z,100829.28
2023-04-11T01:21:57.825Z,100834.69
2023-04-11T01:24:24.457Z,100829.84
2023-04-11T01:26:50.852Z,100836.63
2023-04-11T01:29:17.502Z,100832.03
2023-04-11T01:31:44.029Z,100834.75
2023-04-11T01:34:13.877Z,100836.94
2023-04-11T01:36:42.007Z,100833.41
2023-04-11T01:39:08.561Z,100834.22
2023-04-11T01:41:35.898Z,100839.63
2023-04-11T01:44:04.120Z,100842.63
2023-04-11T01:46:30.962Z,100841.81
2023-04-11T01:48:58.559Z,100844.25
2023-04-11T01:51:25.173Z,100845.09
2023-04-11T01:53:51.573Z,100855.59
2023-04-11T01:56:17.951Z,100853.16
2023-04-11T01:58:44.439Z,100853.16
2023-04-11T02:01:13.180Z,100855.31
2023-04-11T02:03:39.703Z,100859.09
2023-04-11T02:06:06.448Z,100866.13
2023-04-11T02:08:32.915Z,100868.31
2023-04-11T02:10:59.308Z,100865.84
2023-04-11T02:13:25.778Z,100871.00
2023-04-11T02:15:52.163Z,100875.34
2023-04-11T02:18:18.565Z,100872.13
2023-04-11T02:20:45.063Z,100881.06
2023-04-11T02:23:12.728Z,100887.03
2023-04-11T02:25:39.306Z,100885.94
2023-04-11T02:28:07.967Z,100885.69
2023-04-11T02:30:34.743Z,100896.00
2023-04-11T02:33:01.691Z,100886.25
2023-04-11T02:35:28.152Z,100898.16
2023-04-11T02:37:54.528Z,100901.41
2023-04-11T02:40:20.903Z,100894.91
2023-04-11T02:42:47.376Z,100898.44
2023-04-11T02:45:13.752Z,100892.19
2023-04-11T02:47:40.293Z,100894.38
2023-04-11T02:50:07.478Z,100896.25
2023-04-11T02:52:34.133Z,100898.16
2023-04-11T02:55:00.604Z,100894.06
2023-04-11T02:57:27.727Z,100892.44
2023-04-11T02:59:54.123Z,100890.50
2023-04-11T03:02:23.488Z,100894.28
2023-04-11T03:04:51.156Z,100893.72
2023-04-11T03:07:17.550Z,100889.34
2023-04-11T03:09:44.116Z,100892.00
2023-04-11T03:12:10.489Z,100898.47
2023-04-11T03:14:36.911Z,100894.69
2023-04-11T03:17:03.290Z,100900.09
2023-04-11T03:19:29.804Z,100897.41
2023-04-11T03:21:56.457Z,100899.28
2023-04-11T03:24:22.838Z,100903.63
2023-04-11T03:26:49.198Z,100898.22
2023-04-11T03:29:16.599Z,100899.59
2023-04-11T03:31:43.227Z,100905.00
2023-04-11T03:34:09.712Z,100911.22
2023-04-11T03:36:36.123Z,100909.59
2023-04-11T03:39:02.913Z,100911.72
2023-04-11T03:41:29.471Z,100914.69
2023-04-11T03:43:55.892Z,100916.84
2023-04-11T03:46:22.273Z,100924.69
2023-04-11T03:48:48.663Z,100921.97
2023-04-11T03:51:15.449Z,100920.63
2023-04-11T03:53:41.827Z,100922.50
2023-04-11T03:56:08.974Z,100922.75
2023-04-11T03:58:36.070Z,100921.38
2023-04-11T04:01:02.733Z,100934.31
2023-04-11T04:03:29.384Z,100942.69
2023-04-11T04:05:55.870Z,100948.34
2023-04-11T04:08:22.238Z,100955.09
2023-04-11T04:10:48.754Z,100959.16
2023-04-11T04:13:15.266Z,100952.94
2023-04-11T04:15:42.408Z,100967.53
2023-04-11T04:18:08.912Z,100957.53
2023-04-11T04:20:35.342Z,100958.88
2023-04-11T04:23:04.671Z,100959.38
2023-04-11T04:25:31.120Z,100964.78
2023-04-11T04:27:58.187Z,100969.91
2023-04-11T04:30:28.756Z,100970.19
2023-04-11T04:32:58.971Z,100975.03
2023-04-11T04:35:26.555Z,100979.88
2023-04-11T04:37:54.084Z,100980.94
2023-04-11T04:40:20.713Z,100980.94
2023-04-11T04:42:58.083Z,100987.38
2023-04-11T04:45:26.253Z,100999.53
2023-04-11T04:47:52.832Z,100998.41
2023-04-11T04:50:20.372Z,101007.25
2023-04-11T04:52:47.122Z,100999.63
2023-04-11T04:55:14.478Z,101014.72
2023-04-11T04:57:40.826Z,101013.56
2023-04-11T05:00:11.559Z,101016.78
2023-04-11T05:02:38.180Z,101017.28
2023-04-11T05:05:05.204Z,101013.19
2023-04-11T05:07:31.814Z,101020.41
2023-04-11T05:09:58.291Z,101029.25
2023-04-11T05:12:27.136Z,101037.09
2023-04-11T05:14:55.377Z,101044.06
2023-04-11T05:17:23.943Z,101038.91
2023-04-11T05:19:51.783Z,101049.72
2023-04-11T05:22:18.253Z,101041.84
2023-04-11T05:24:44.658Z,101053.50
2023-04-11T05:27:11.009Z,101049.38
2023-04-11T05:29:37.349Z,101047.75
2023-04-11T05:32:03.914Z,101058.56
2023-04-11T05:34:32.688Z,101060.69
2023-04-11T05:36:59.097Z,101056.91
2023-04-11T05:39:25.709Z,101065.59
2023-04-11T05:41:52.094Z,101064.78
2023-04-11T05:44:18.547Z,101070.41
2023-04-11T05:46:44.898Z,101071.00
2023-04-11T05:49:11.659Z,101076.97
2023-04-11T05:51:38.123Z,101074.84
2023-04-11T05:54:04.613Z,101083.50
2023-04-11T05:56:31.026Z,101080.31
2023-04-11T05:58:57.395Z,101087.34
2023-04-11T06:01:23.906Z,101096.59
2023-04-11T06:03:50.492Z,101097.19
2023-04-11T06:06:17.381Z,101102.09
2023-04-11T06:08:44.210Z,101098.31
2023-04-11T06:11:11.215Z,101099.47
2023-04-11T06:13:37.704Z,101113.88
2023-04-11T06:16:06.498Z,101106.66
2023-04-11T06:18:32.997Z,101106.16
2023-04-11T06:20:59.463Z,101109.44
2023-04-11T06:23:25.886Z,101106.00
2023-04-11T06:25:52.972Z,101107.16
2023-04-11T06:28:19.405Z,101113.97
2023-04-11T06:30:45.894Z,101108.28
2023-04-11T06:33:12.497Z,101104.84
2023-04-11T06:35:39.025Z,101117.88
2023-04-11T06:38:05.485Z,101117.59
2023-04-11T06:40:31.947Z,101122.84
2023-04-11T06:43:00.114Z,101128.31
2023-04-11T06:45:26.691Z,101133.47
2023-04-11T06:47:53.233Z,101127.41
2023-04-11T06:50:19.801Z,101129.66
2023-04-11T06:52:46.200Z,101129.41
2023-04-11T06:55:15.378Z,101133.25
2023-04-11T06:57:43.104Z,101145.75
2023-04-11T07:00:12.232Z,101137.63
2023-04-11T07:02:39.382Z,101140.84
2023-04-11T07:05:06.587Z,101143.84
2023-04-11T07:07:33.020Z,101149.09
2023-04-11T07:09:59.499Z,101141.59
2023-04-11T07:12:25.901Z,101151.66
2023-04-11T07:14:52.360Z,101149.00
2023-04-11T07:17:18.764Z,101164.75
2023-04-11T07:19:45.187Z,101145.56
2023-04-11T07:22:11.553Z,101149.44
2023-04-11T07:24:37.956Z,101154.09
2023-04-11T07:27:04.758Z,101159.66
2023-04-11T07:29:31.696Z,101170.00
2023-04-11T07:31:58.234Z,101165.38
2023-04-11T07:34:24.763Z,101166.81
2023-04-11T07:36:51.267Z,101170.09
2023-04-11T07:39:17.755Z,101171.22
2023-04-11T07:41:44.862Z,101178.66
2023-04-11T07:44:11.459Z,101168.72
2023-04-11T07:46:37.826Z,101166.56
2023-04-11T07:49:04.481Z,101156.84
2023-04-11T07:51:31.289Z,101163.94
2023-04-11T07:53:57.904Z,101168.59
2023-04-11T07:56:24.447Z,101161.28
2023-04-11T07:58:50.914Z,101174.91
2023-04-11T08:01:25.469Z,101174.09
2023-04-11T08:03:53.567Z,101188.09
2023-04-11T08:06:20.450Z,101184.44
2023-04-11T08:08:47.876Z,101201.50
2023-04-11T08:11:14.699Z,101205.03
2023-04-11T08:13:42.177Z,101194.06
2023-04-11T08:16:10.886Z,101203.59
2023-04-11T08:18:37.524Z,101208.91
2023-04-11T08:21:04.024Z,101207.13
2023-04-11T08:23:30.470Z,101207.22
2023-04-11T08:25:56.919Z,101209.47
2023-04-11T08:28:23.930Z,101217.94
2023-04-11T08:30:55.249Z,101215.81
2023-04-11T08:33:25.041Z,101219.69
2023-04-11T08:35:51.590Z,101218.84
2023-04-11T08:38:18.209Z,101231.63
2023-04-11T08:40:44.580Z,101224.56
2023-04-11T08:43:12.391Z,101213.94
2023-04-11T08:45:42.266Z,101229.44
2023-04-11T08:48:09.368Z,101231.06
2023-04-11T08:50:35.986Z,101233.81
2023-04-11T08:53:03.756Z,101236.81
2023-04-11T08:55:31.056Z,101245.69
2023-04-11T08:57:59.351Z,101239.69
2023-04-11T09:00:28.807Z,101249.78
2023-04-11T09:03:00.903Z,101241.44
2023-04-11T09:05:29.768Z,101242.50
2023-04-11T09:07:58.873Z,101242.50
2023-04-11T09:10:26.684Z,101245.50
2023-04-11T09:12:56.608Z,101239.78
2023-04-11T09:15:28.270Z,101244.13
2023-04-11T09:17:58.223Z,101238.69
2023-04-11T09:20:27.163Z,101244.13
2023-04-11T09:22:54.130Z,101244.91
2023-04-11T09:25:23.045Z,101249.03
2023-04-11T09:27:50.834Z,101260.47
2023-04-11T09:30:26.878Z,101255.56
2023-04-11T09:32:54.239Z,101264.28
2023-04-11T09:35:24.078Z,101263.97
2023-04-11T09:37:58.435Z,101259.91
2023-04-11T09:40:27.006Z,101252.81
2023-04-11T09:43:01.335Z,101248.44
2023-04-11T09:45:32.162Z,101257.94
2023-04-11T09:48:02.449Z,101255.47
2023-04-11T09:50:29.073Z,101252.66
2023-04-11T09:52:58.513Z,101270.38
2023-04-11T09:55:25.902Z,101264.66
2023-04-11T09:57:54.143Z,101263.03
2023-04-11T10:00:24.100Z,101269.25
2023-04-11T10:02:53.630Z,101273.94
2023-04-11T10:05:25.962Z,101271.22
2023-04-11T10:08:02.522Z,101276.75
2023-04-11T10:10:29.514Z,101271.56
2023-04-11T10:12:56.026Z,101276.75
2023-04-11T10:15:22.942Z,101278.97
2023-04-11T10:18:12.209Z,101275.16
2023-04-11T10:20:50.105Z,101278.72
2023-04-11T10:23:16.817Z,101278.97
2023-04-11T10:26:00.005Z,101282.78
2023-04-11T10:28:30.903Z,101277.88
2023-04-11T10:31:09.856Z,101278.16
2023-04-11T10:33:38.133Z,101274.63
2023-04-11T10:36:06.175Z,101291.47
2023-04-11T10:38:41.503Z,101286.59
2023-04-11T10:41:25.006Z,101293.13
2023-04-11T10:43:52.058Z,101290.94
2023-04-11T10:46:22.841Z,101300.19
2023-04-11T10:49:03.575Z,101291.47
2023-04-11T10:51:31.631Z,101286.59
2023-04-11T10:54:02.784Z,101288.22
2023-04-11T10:56:48.842Z,101288.75
2023-04-11T10:59:36.314Z,101284.94
2023-04-11T11:02:03.076Z,101288.19
2023-04-11T11:04:33.911Z,101288.72
2023-04-11T11:07:01.804Z,101292.47
2023-04-11T11:09:28.773Z,101298.19
2023-04-11T11:12:08.461Z,101300.38
2023-04-11T11:14:35.649Z,101285.84
2023-04-11T11:17:03.084Z,101292.41
2023-04-11T11:19:31.104Z,101297.00
2023-04-11T11:22:03.412Z,101290.16
2023-04-11T11:24:30.918Z,101303.75
2023-04-11T11:26:58.189Z,101305.91
2023-04-11T11:29:34.041Z,101304.84
2023-04-11T11:32:03.580Z,101309.44
2023-04-11T11:34:31.773Z,101310.34
2023-04-11T11:36:59.566Z,101306.28
2023-04-11T11:39:26.654Z,101325.13
2023-04-11T11:41:53.629Z,101316.41
2023-04-11T11:44:28.753Z,101321.59
2023-04-11T11:47:02.227Z,101322.09
2023-04-11T11:49:52.547Z,101325.06
2023-04-11T11:52:43.488Z,101318.78
2023-04-11T11:55:32.060Z,101324.44
2023-04-11T11:58:01.283Z,101319.56
2023-04-11T12:00:29.088Z,101320.44
2023-04-11T12:02:56.894Z,101327.53
2023-04-11T12:05:33.206Z,101329.44
2023-04-11T12:08:05.225Z,101329.94
2023-04-11T12:10:40.522Z,101337.03
2023-04-11T12:13:25.491Z,101327.16
2023-04-11T12:15:55.642Z,101328.75
2023-04-11T12:18:27.713Z,101334.25
2023-04-11T12:20:54.369Z,101328.75
2023-04-11T12:23:22.573Z,101347.44
2023-04-11T12:25:48.967Z,101337.78
2023-04-11T12:28:15.704Z,101326.78
2023-04-11T12:30:42.169Z,101337.16
2023-04-11T12:33:08.865Z,101332.78
2023-04-11T12:35:35.326Z,101336.63
2023-04-11T12:38:01.894Z,101341.91
2023-04-11T12:40:29.769Z,101327.72
2023-04-11T12:42:57.462Z,101343.34
2023-04-11T12:45:25.006Z,101332.63
2023-04-11T12:47:52.075Z,101332.78
2023-04-11T12:50:18.747Z,101331.13
2023-04-11T12:52:45.419Z,101332.34
2023-04-11T12:55:12.990Z,101331.63
2023-04-11T12:57:39.641Z,101325.34
2023-04-11T13:00:07.760Z,101329.63
2023-04-11T13:02:42.221Z,101340.28
2023-04-11T13:05:14.101Z,101342.81
2023-04-11T13:07:41.153Z,101337.81
2023-04-11T13:10:08.274Z,101331.50
2023-04-11T13:12:39.832Z,101326.25
2023-04-11T13:15:08.124Z,101325.41
2023-04-11T13:17:36.920Z,101332.47
2023-04-11T13:20:10.713Z,101326.22
2023-04-11T13:22:38.508Z,101329.44
2023-04-11T13:25:05.844Z,101325.06
2023-04-11T13:27:32.275Z,101335.50
2023-04-11T13:29:58.781Z,101337.44
2023-04-11T13:32:25.567Z,101331.94
2023-04-11T13:34:52.153Z,101331.94
2023-04-11T13:37:18.655Z,101345.31
2023-04-11T13:39:45.024Z,101348.53
2023-04-11T13:42:12.609Z,101345.22
2023-04-11T13:44:38.999Z,101344.69
2023-04-11T13:47:05.567Z,101341.97
2023-04-11T13:49:31.938Z,101349.34
2023-04-11T13:51:58.341Z,101345.25
2023-04-11T13:54:24.722Z,101328.88
2023-04-11T13:56:51.125Z,101319.06
2023-04-11T13:59:17.485Z,101322.94
2023-04-11T14:01:44.203Z,101333.34
2023-04-11T14:04:10.740Z,101345.66
2023-04-11T14:06:37.550Z,101336.94
2023-04-11T14:09:05.521Z,101328.22
2023-04-11T14:11:32.166Z,101324.09
2023-04-11T14:13:58.789Z,101316.97
2023-04-11T14:16:25.392Z,101311.78
2023-04-11T14:18:51.748Z,101320.28
2023-04-11T14:21:18.243Z,101320.56
2023-04-11T14:23:44.644Z,101321.63
2023-04-11T14:26:11.096Z,101317.25
2023-04-11T14:28:37.634Z,101312.00
2023-04-11T14:31:04.268Z,101307.38
2023-04-11T14:33:31.444Z,101304.69
2023-04-11T14:35:57.838Z,101317.50
2023-04-11T14:38:24.245Z,101321.09
2023-04-11T14:40:50.702Z,101307.72
2023-04-11T14:43:17.298Z,101307.19
2023-04-11T14:45:43.795Z,101305.00
2023-04-11T14:48:10.419Z,101304.47
2023-04-11T14:50:36.888Z,101305.31
2023-04-11T14:53:03.418Z,101291.66
2023-04-11T14:55:29.837Z,101300.38
2023-04-11T14:57:56.591Z,101309.13
2023-04-11T15:00:24.702Z,101300.16
2023-04-11T15:02:53.893Z,101288.69
2023-04-11T15:05:22.399Z,101296.38
2023-04-11T15:07:50.478Z,101286.03
2023-04-11T15:10:22.285Z,101281.97
2023-04-11T15:12:49.792Z,101276.00
2023-04-11T15:15:16.385Z,101281.16
2023-04-11T15:17:48.155Z,101272.44
2023-04-11T15:20:15.958Z,101255.00
2023-04-11T15:22:44.493Z,101258.28
2023-04-11T15:25:13.083Z,101264.28
2023-04-11T15:27:40.064Z,101261.59
2023-04-11T15:30:07.416Z,101262.72
2023-04-11T15:32:34.386Z,101269.84
2023-04-11T15:35:00.970Z,101259.50
2023-04-11T15:37:27.638Z,101254.28
2023-04-11T15:39:54.283Z,101254.00
2023-04-11T15:42:20.904Z,101243.09
2023-04-11T15:44:47.341Z,101247.50
2023-04-11T15:47:13.872Z,101256.50
2023-04-11T15:49:40.969Z,101247.56
2023-04-11T15:52:07.401Z,101239.41
2023-04-11T15:54:33.908Z,101247.28
2023-04-11T15:57:01.753Z,101235.00
2023-04-11T15:59:28.197Z,101233.91
2023-04-11T16:01:54.753Z,101234.44
2023-04-11T16:04:21.315Z,101234.16
2023-04-11T16:06:47.868Z,101230.94
2023-04-11T16:09:14.357Z,101231.28
2023-04-11T16:11:41.136Z,101229.94
2023-04-11T16:14:07.515Z,101240.84
2023-04-11T16:16:34.054Z,101239.78
2023-04-11T16:19:00.563Z,101239.78
2023-04-11T16:21:27.183Z,101231.88
2023-04-11T16:23:54.818Z,101232.78
2023-04-11T16:26:21.445Z,101224.63
2023-04-11T16:28:48.795Z,101219.44
2023-04-11T16:31:21.516Z,101217.53
2023-04-11T16:33:47.994Z,101206.34
2023-04-11T16:36:14.401Z,101214.50
2023-04-11T16:38:40.961Z,101206.91
2023-04-11T16:41:07.421Z,101204.72
2023-04-11T16:43:33.862Z,101200.69
2023-04-11T16:46:00.554Z,101204.00
2023-04-11T16:48:27.093Z,101204.31
2023-04-11T16:50:53.606Z,101208.13
2023-04-11T16:53:20.042Z,101203.25
2023-04-11T16:55:46.417Z,101194.00
2023-04-11T16:58:12.874Z,101190.75
2023-04-11T17:00:39.270Z,101186.41
2023-04-11T17:03:05.858Z,101178.78
2023-04-11T17:05:34.170Z,101182.59
2023-04-11T17:08:00.818Z,101181.53
2023-04-11T17:10:27.230Z,101179.66
2023-04-11T17:12:54.558Z,101176.94
2023-04-11T17:15:21.017Z,101171.50
2023-04-11T17:17:47.539Z,101172.59
2023-04-11T17:20:14.911Z,101163.63
2023-04-11T17:22:43.160Z,101163.09
2023-04-11T17:25:10.270Z,101169.06
2023-04-11T17:27:36.656Z,101170.16
2023-04-11T17:30:04.040Z,101164.19
2023-04-11T17:32:30.568Z,101155.47
2023-04-11T17:34:56.936Z,101154.94
2023-04-11T17:37:23.453Z,101151.16
2023-04-11T17:39:49.854Z,101150.06
2023-04-11T17:42:16.238Z,101145.19
2023-04-11T17:44:42.680Z,101137.03
2023-04-11T17:47:09.058Z,101132.13
2023-04-11T17:49:48.705Z,101129.38
2023-04-11T17:52:15.083Z,101124.50
2023-04-11T17:54:45.448Z,101115.78
2023-04-11T17:57:13.031Z,101112.53
2023-04-11T17:59:40.808Z,101116.88
2023-04-11T18:02:09.545Z,101112.50
2023-04-11T18:04:36.226Z,101113.06
2023-04-11T18:07:03.765Z,101104.09
2023-04-11T18:09:31.845Z,101105.97
2023-04-11T18:12:05.545Z,101109.50
2023-04-11T18:14:33.916Z,101111.38
2023-04-11T18:17:04.491Z,101111.38
2023-04-11T18:19:34.096Z,101112.44
2023-04-11T18:22:00.594Z,101098.59
2023-04-11T18:24:31.690Z,101114.34
2023-04-11T18:27:01.270Z,101106.97
2023-04-11T18:29:27.680Z,101100.47
2023-04-11T18:32:21.201Z,101095.03
2023-04-11T18:34:44.186Z,101100.72
2023-04-11T18:37:11.056Z,101093.66
2023-04-11T18:39:38.263Z,101089.59
2023-04-11T18:42:05.240Z,101087.69
2023-04-11T18:44:32.443Z,101086.06
2023-04-11T18:47:02.046Z,101085.25
2023-04-11T18:49:31.774Z,101082.00
2023-04-11T18:51:58.630Z,101074.94
2023-04-11T18:54:25.466Z,101076.25
2023-04-11T18:56:53.871Z,101067.03
2023-04-11T18:59:28.808Z,101072.75
2023-04-11T19:01:59.312Z,101070.59
2023-04-11T19:04:26.539Z,101070.59
2023-04-11T19:06:53.515Z,101060.28
2023-04-11T19:09:21.518Z,101061.59
2023-04-11T19:11:49.137Z,101057.00
2023-04-11T19:14:18.985Z,101059.97
2023-04-11T19:16:46.833Z,101049.94
2023-04-11T19:19:13.813Z,101049.41
2023-04-11T19:21:42.081Z,101042.34
2023-04-11T19:24:09.786Z,101035.31
2023-04-11T19:26:52.914Z,101040.72
2023-04-11T19:29:19.401Z,101035.31
2023-04-11T19:31:45.966Z,101031.75
2023-04-11T19:34:12.798Z,101036.38
2023-04-11T19:36:39.548Z,101035.31
2023-04-11T19:39:06.424Z,101027.72
2023-04-11T19:41:32.815Z,101028.78
2023-04-11T19:43:59.548Z,101028.78
2023-04-11T19:46:25.996Z,101024.16
2023-04-11T19:48:52.525Z,101019.03
2023-04-11T19:51:18.950Z,101010.31
2023-04-11T19:53:45.957Z,101005.16
2023-04-11T19:56:12.454Z,101007.59
2023-04-11T19:58:40.048Z,101008.41
2023-04-11T20:01:07.335Z,101002.72
2023-04-11T20:03:34.539Z,100989.41
2023-04-11T20:06:02.909Z,100981.53
2023-04-11T20:08:33.303Z,100985.88
2023-04-11T20:10:59.860Z,100979.91
2023-04-11T20:13:26.323Z,100970.69
2023-04-11T20:15:52.754Z,100963.34
2023-04-11T20:18:19.189Z,100963.63
2023-04-11T20:20:45.633Z,100963.34
2023-04-11T20:23:15.888Z,100959.56
2023-04-11T20:25:42.759Z,100956.31
2023-04-11T20:28:09.687Z,100947.63
2023-04-11T20:30:38.567Z,100937.59
2023-04-11T20:33:05.152Z,100934.88
2023-04-11T20:35:31.638Z,100928.91
2023-04-11T20:37:58.260Z,100922.41
2023-04-11T20:40:24.701Z,100919.69
2023-04-11T20:42:51.272Z,100911.53
2023-04-11T20:45:21.664Z,100904.47
2023-04-11T20:47:50.142Z,100902.84
2023-04-11T20:50:17.574Z,100887.91
2023-04-11T20:52:46.533Z,100887.13
2023-04-11T20:55:16.423Z,100883.84
2023-04-11T20:57:42.942Z,100865.94
2023-04-11T21:00:16.955Z,100865.13
2023-04-11T21:02:45.717Z,100855.09
2023-04-11T21:05:13.543Z,100856.19
2023-04-11T21:07:42.016Z,100855.09
2023-04-11T21:10:09.492Z,100851.84
2023-04-11T21:12:36.210Z,100839.91
2023-04-11T21:15:03.675Z,100830.94
2023-04-11T21:17:34.297Z,100834.72
2023-04-11T21:20:01.741Z,100830.94
2023-04-11T21:22:28.123Z,100831.47
2023-04-11T21:24:54.535Z,100829.31
2023-04-11T21:27:21.094Z,100827.69
2023-04-11T21:29:47.531Z,100815.75
2023-04-11T21:32:13.910Z,100811.41
2023-04-11T21:34:40.424Z,100812.78
2023-04-11T21:37:06.803Z,100808.69
2023-04-11T21:39:33.200Z,100799.22
2023-04-11T21:42:00.229Z,100810.31
2023-04-11T21:44:26.718Z,100809.50
2023-04-11T21:46:53.241Z,100802.47
2023-04-11T21:49:19.724Z,100799.75
2023-04-11T21:51:46.107Z,100792.94
2023-04-11T21:54:12.482Z,100792.16
2023-04-11T21:56:38.898Z,100787.81
2023-04-11T21:59:05.496Z,100785.09
2023-04-11T22:01:31.916Z,100781.03
2023-04-11T22:03:59.145Z,100778.59
2023-04-11T22:06:26.613Z,100776.97
2023-04-11T22:08:53.039Z,100776.97
2023-04-11T22:11:20.347Z,100778.59
2023-04-11T22:13:46.956Z,100779.94
2023-04-11T22:16:14.174Z,100769.91
2023-04-11T22:18:49.826Z,100772.63
2023-04-11T22:21:19.689Z,100762.84
2023-04-11T22:23:54.703Z,100749.31
2023-04-11T22:26:35.032Z,100755.81
2023-04-11T22:29:05.478Z,100748.75
2023-04-11T22:31:38.328Z,100743.88
2023-04-11T22:34:05.371Z,100739.00
2023-04-11T22:36:35.783Z,100735.19
2023-04-11T22:39:05.907Z,100720.56
2023-04-11T22:41:33.210Z,100716.19
2023-04-11T22:44:00.849Z,100712.94
2023-04-11T22:46:30.938Z,100700.47
2023-04-11T22:49:00.220Z,100698.59
2023-04-11T22:51:30.034Z,100687.75
2023-04-11T22:53:57.123Z,100687.44
2023-04-11T22:56:23.753Z,100693.41
2023-04-11T22:58:50.195Z,100680.69
2023-04-11T23:01:17.576Z,100664.16
2023-04-11T23:03:44.021Z,100660.91
2023-04-11T23:06:10.942Z,100662.81
2023-04-11T23:08:37.448Z,100662.00
2023-04-11T23:11:04.169Z,100662.53
2023-04-11T23:13:30.587Z,100649.53
2023-04-11T23:15:57.005Z,100638.69
2023-04-11T23:18:23.365Z,100638.94
2023-04-11T23:20:50.734Z,100632.44
2023-04-11T23:23:18.339Z,100632.75
2023-04-11T23:25:45.425Z,100635.97
2023-04-11T23:28:12.270Z,100615.94
2023-04-11T23:30:39.164Z,100621.91
2023-04-11T23:33:08.942Z,100627.56
2023-04-11T23:35:35.886Z,100610.22
2023-04-11T23:38:03.186Z,100618.09
2023-04-11T23:40:30.500Z,100602.41
2023-04-11T23:42:59.878Z,100592.09
2023-04-11T23:45:26.429Z,100586.41
2023-04-11T23:47:53.070Z,100583.44
2023-04-11T23:50:19.539Z,100571.22
2023-04-11T23:52:46.857Z,100568.50
2023-04-11T23:55:13.614Z,100551.47
2023-04-11T23:57:39.991Z,100548.22
